createdAt,value
2022-08-07T00:01:44.326Z,54.72
2022-08-07T00:04:09.703Z,55.18
2022-08-07T00:06:40.903Z,55.29
2022-08-07T00:09:22.331Z,55.53
2022-08-07T00:11:55.997Z,55.84
2022-08-07T00:14:31.057Z,56.35
2022-08-07T00:17:02.381Z,56.42
2022-08-07T00:19:59.969Z,56.50
2022-08-07T00:22:24.382Z,57.25
2022-08-07T00:25:15.831Z,57.66
2022-08-07T00:27:53.485Z,57.89
2022-08-07T00:30:26.810Z,58.01
2022-08-07T00:32:58.327Z,58.32
2022-08-07T00:35:30.110Z,58.41
2022-08-07T00:37:59.857Z,58.89
2022-08-07T00:40:39.940Z,59.09
2022-08-07T00:43:59.194Z,59.46
2022-08-07T00:46:00.385Z,59.50
2022-08-07T00:48:32.325Z,59.59
2022-08-07T00:51:02.878Z,59.55
2022-08-07T00:53:39.378Z,59.66
2022-08-07T00:56:19.158Z,59.91
2022-08-07T00:58:49.972Z,60.54
2022-08-07T01:01:20.495Z,60.90
2022-08-07T01:03:56.343Z,60.63
2022-08-07T01:06:29.385Z,60.89
2022-08-07T01:09:00.920Z,60.78
2022-08-07T01:12:23.278Z,60.62
2022-08-07T01:14:28.757Z,61.05
2022-08-07T01:16:58.600Z,60.90
2022-08-07T01:19:32.484Z,60.70
2022-08-07T01:22:03.258Z,60.71
2022-08-07T01:24:39.641Z,61.40
2022-08-07T01:27:19.945Z,62.19
2022-08-07T01:29:50.673Z,62.58
2022-08-07T01:32:22.371Z,62.86
2022-08-07T01:34:53.805Z,63.22
2022-08-07T01:37:22.328Z,63.36
2022-08-07T01:39:52.960Z,63.05
2022-08-07T01:42:38.329Z,63.76
2022-08-07T01:45:18.375Z,64.28
2022-08-07T01:48:29.847Z,64.14
2022-08-07T01:50:50.486Z,64.67
2022-08-07T01:54:09.571Z,64.98
2022-08-07T01:56:16.459Z,64.99
2022-08-07T01:59:03.039Z,65.10
2022-08-07T02:02:02.855Z,64.86
2022-08-07T02:04:32.109Z,65.05
2022-08-07T02:07:05.177Z,65.19
2022-08-07T02:09:52.912Z,65.42
2022-08-07T02:12:31.039Z,65.75
2022-08-07T02:15:06.074Z,65.28
2022-08-07T02:17:49.620Z,66.12
2022-08-07T02:20:23.437Z,66.85
2022-08-07T02:22:59.718Z,67.16
2022-08-07T02:26:10.822Z,66.68
2022-08-07T02:28:24.447Z,66.48
2022-08-07T02:30:54.792Z,66.58
2022-08-07T02:33:32.868Z,66.99
2022-08-07T02:36:30.779Z,67.20
2022-08-07T02:39:16.253Z,67.16
2022-08-07T02:41:54.569Z,66.96
2022-08-07T02:44:27.497Z,67.46
2022-08-07T02:47:01.812Z,67.71
2022-08-07T02:49:57.965Z,67.60
2022-08-07T02:52:30.931Z,67.80
2022-08-07T02:55:15.265Z,67.99
2022-08-07T02:58:03.034Z,68.84
2022-08-07T03:00:35.423Z,68.74
2022-08-07T03:03:07.572Z,68.72
2022-08-07T03:05:44.841Z,68.30
2022-08-07T03:08:14.268Z,68.34
2022-08-07T03:10:47.219Z,68.75
2022-08-07T03:13:20.246Z,69.38
2022-08-07T03:15:56.395Z,68.94
2022-08-07T03:18:34.856Z,69.48
2022-08-07T03:21:08.558Z,69.30
2022-08-07T03:24:20.785Z,69.08
2022-08-07T03:26:32.561Z,69.36
2022-08-07T03:29:06.444Z,69.67
2022-08-07T03:31:46.340Z,70.03
2022-08-07T03:34:18.542Z,70.91
2022-08-07T03:36:54.249Z,70.89
2022-08-07T03:40:00.045Z,70.81
2022-08-07T03:42:17.387Z,70.03
2022-08-07T03:44:53.178Z,70.60
2022-08-07T03:47:22.699Z,70.98
2022-08-07T03:49:52.507Z,70.70
2022-08-07T03:52:27.594Z,71.07
2022-08-07T03:55:07.110Z,71.60
2022-08-07T03:58:34.647Z,72.15
2022-08-07T04:00:33.651Z,71.81
2022-08-07T04:03:04.780Z,71.52
2022-08-07T04:05:40.845Z,71.99
2022-08-07T04:08:21.332Z,72.21
2022-08-07T04:10:53.868Z,72.29
2022-08-07T04:14:09.981Z,72.24
2022-08-07T04:16:30.372Z,72.37
2022-08-07T04:19:04.213Z,72.38
2022-08-07T04:21:59.479Z,72.17
2022-08-07T04:24:39.166Z,71.76
2022-08-07T04:27:15.148Z,71.90
2022-08-07T04:30:01.549Z,71.65
2022-08-07T04:32:48.070Z,71.02
2022-08-07T04:35:27.080Z,70.08
2022-08-07T04:38:03.537Z,69.39
2022-08-07T04:40:52.106Z,68.57
2022-08-07T04:44:13.259Z,67.48
2022-08-07T04:47:04.288Z,66.44
2022-08-07T04:49:42.683Z,65.66
2022-08-07T04:52:51.967Z,64.49
2022-08-07T04:58:15.618Z,63.88
2022-08-07T04:58:47.531Z,63.09
2022-08-07T05:01:50.560Z,62.28
2022-08-07T05:04:31.133Z,60.88
2022-08-07T05:07:19.507Z,60.05
2022-08-07T05:09:57.071Z,59.82
2022-08-07T05:12:35.223Z,58.85
2022-08-07T05:15:23.246Z,58.53
2022-08-07T05:18:01.308Z,57.76
2022-08-07T05:20:38.489Z,57.28
2022-08-07T05:23:15.717Z,56.67
2022-08-07T05:26:13.804Z,56.36
2022-08-07T05:28:37.193Z,56.46
2022-08-07T05:31:14.652Z,56.20
2022-08-07T05:34:01.558Z,56.10
2022-08-07T05:36:39.122Z,56.13
2022-08-07T05:40:06.920Z,56.04
2022-08-07T05:42:07.567Z,55.20
2022-08-07T05:44:41.524Z,54.80
2022-08-07T05:47:38.587Z,54.18
2022-08-07T05:50:10.166Z,53.62
2022-08-07T05:52:38.670Z,53.41
2022-08-07T05:55:10.789Z,53.16
2022-08-07T05:57:43.235Z,52.61
2022-08-07T06:00:16.473Z,52.44
2022-08-07T06:02:51.978Z,52.00
2022-08-07T06:05:28.332Z,51.42
2022-08-07T06:08:12.339Z,51.34
2022-08-07T06:10:51.384Z,50.35
2022-08-07T06:14:12.502Z,49.50
2022-08-07T06:16:15.089Z,48.54
2022-08-07T06:18:51.698Z,47.92
2022-08-07T06:22:15.116Z,47.44
2022-08-07T06:24:38.212Z,46.95
2022-08-07T06:27:03.751Z,46.23
2022-08-07T06:29:34.063Z,46.10
2022-08-07T06:32:02.671Z,45.30
2022-08-07T06:34:33.302Z,44.78
2022-08-07T06:37:02.811Z,44.21
2022-08-07T06:40:12.972Z,43.63
2022-08-07T06:42:37.276Z,43.29
2022-08-07T06:45:18.188Z,42.64
2022-08-07T06:47:58.594Z,42.60
2022-08-07T06:50:39.131Z,42.10
2022-08-07T06:54:12.131Z,41.28
2022-08-07T06:56:14.767Z,41.12
2022-08-07T07:00:13.187Z,41.03
2022-08-07T07:01:43.640Z,39.61
2022-08-07T07:04:32.424Z,39.60
2022-08-07T07:07:18.854Z,39.37
2022-08-07T07:09:50.804Z,38.97
2022-08-07T07:12:30.749Z,38.48
2022-08-07T07:15:35.832Z,37.99
2022-08-07T07:18:09.080Z,37.03
2022-08-07T07:20:46.487Z,37.11
2022-08-07T07:24:10.288Z,36.51
2022-08-07T07:26:33.837Z,35.77
2022-08-07T07:29:38.513Z,35.40
2022-08-07T07:32:03.788Z,34.42
2022-08-07T07:34:34.928Z,34.00
2022-08-07T07:37:45.099Z,33.17
2022-08-07T07:40:00.163Z,32.21
2022-08-07T07:42:32.872Z,31.91
2022-08-07T07:45:03.948Z,31.55
2022-08-07T07:47:51.751Z,31.75
2022-08-07T07:50:34.755Z,31.31
2022-08-07T07:53:20.437Z,31.12
2022-08-07T07:56:00.993Z,31.09
2022-08-07T07:58:40.654Z,30.65
2022-08-07T08:02:03.943Z,30.34
2022-08-07T08:04:09.310Z,30.34
2022-08-07T08:06:50.999Z,30.61
2022-08-07T08:09:29.443Z,30.68
2022-08-07T08:12:03.812Z,30.87
2022-08-07T08:14:36.245Z,30.36
2022-08-07T08:17:55.731Z,29.74
2022-08-07T08:20:17.446Z,29.38
2022-08-07T08:23:10.955Z,28.97
2022-08-07T08:26:16.202Z,28.73
2022-08-07T08:28:46.173Z,28.54
2022-08-07T08:31:22.665Z,28.30
2022-08-07T08:34:01.362Z,28.10
2022-08-07T08:36:34.655Z,27.77
2022-08-07T08:39:03.319Z,27.36
2022-08-07T08:41:58.398Z,26.96
2022-08-07T08:45:10.721Z,27.31
2022-08-07T08:48:04.856Z,27.69
2022-08-07T08:50:42.451Z,27.65
2022-08-07T08:53:52.074Z,27.32
2022-08-07T08:56:32.779Z,27.33
2022-08-07T08:59:13.611Z,26.78
2022-08-07T09:01:52.821Z,26.32
2022-08-07T09:04:43.457Z,26.21
2022-08-07T09:07:11.588Z,26.34
2022-08-07T09:10:08.017Z,26.54
2022-08-07T09:12:56.973Z,26.20
2022-08-07T09:16:25.527Z,25.26
2022-08-07T09:19:52.943Z,25.31
2022-08-07T09:24:27.469Z,25.56
2022-08-07T09:25:25.079Z,25.47
2022-08-07T09:30:05.064Z,25.44
2022-08-07T09:31:38.842Z,25.34
2022-08-07T09:34:29.960Z,25.96
2022-08-07T09:37:07.757Z,24.96
2022-08-07T09:39:54.834Z,24.65
2022-08-07T09:42:53.457Z,24.43
2022-08-07T09:47:27.829Z,23.76
2022-08-07T09:48:55.888Z,23.76
2022-08-07T09:52:34.228Z,23.60
2022-08-07T09:56:04.375Z,23.98
2022-08-07T09:59:37.109Z,23.55
2022-08-07T10:02:29.795Z,23.79
2022-08-07T10:05:14.827Z,23.64
2022-08-07T10:08:04.557Z,23.74
2022-08-07T10:12:00.167Z,23.82
2022-08-07T10:14:01.707Z,24.16
2022-08-07T10:16:43.167Z,24.04
2022-08-07T10:19:31.531Z,24.15
2022-08-07T10:22:45.217Z,24.66
2022-08-07T10:25:22.813Z,24.81
2022-08-07T10:28:08.274Z,24.51
2022-08-07T10:30:52.274Z,25.11
2022-08-07T10:34:14.483Z,25.89
2022-08-07T10:36:54.949Z,26.33
2022-08-07T10:40:14.993Z,26.55
2022-08-07T10:43:15.472Z,26.86
2022-08-07T10:45:58.014Z,27.25
2022-08-07T10:48:39.228Z,27.36
2022-08-07T10:52:01.494Z,26.81
2022-08-07T10:54:53.535Z,25.93
2022-08-07T10:57:39.592Z,25.44
2022-08-07T11:00:36.802Z,25.04
2022-08-07T11:03:28.147Z,24.61
2022-08-07T11:06:22.169Z,24.41
2022-08-07T11:09:03.102Z,24.10
2022-08-07T11:11:40.099Z,23.78
2022-08-07T11:14:57.414Z,23.39
2022-08-07T11:17:43.344Z,24.20
2022-08-07T11:21:05.219Z,24.30
2022-08-07T11:24:14.183Z,24.10
2022-08-07T11:26:50.886Z,23.90
2022-08-07T11:30:18.356Z,23.92
2022-08-07T11:33:53.673Z,23.65
2022-08-07T11:36:37.903Z,23.21
2022-08-07T11:39:14.642Z,22.83
2022-08-07T11:42:08.246Z,22.32
2022-08-07T11:45:36.091Z,21.78
2022-08-07T11:48:29.400Z,21.74
2022-08-07T11:51:41.904Z,21.75
2022-08-07T11:54:56.361Z,21.90
2022-08-07T11:58:00.344Z,22.54
2022-08-07T12:00:48.873Z,22.76
2022-08-07T12:04:09.456Z,22.73
2022-08-07T12:07:00.997Z,22.14
2022-08-07T12:09:54.173Z,21.90
2022-08-07T12:12:41.714Z,22.23
2022-08-07T12:15:46.714Z,22.30
2022-08-07T12:18:29.878Z,22.27
2022-08-07T12:21:03.252Z,22.13
2022-08-07T12:24:04.964Z,21.99
2022-08-07T12:26:46.123Z,21.62
2022-08-07T12:29:37.674Z,21.51
2022-08-07T12:32:31.749Z,21.32
2022-08-07T12:35:03.082Z,21.37
2022-08-07T12:38:09.661Z,21.66
2022-08-07T12:40:47.091Z,21.81
2022-08-07T12:44:04.498Z,21.99
2022-08-07T12:46:26.627Z,21.78
2022-08-07T12:49:51.803Z,21.48
2022-08-07T12:52:38.640Z,21.28
2022-08-07T12:55:18.341Z,20.84
2022-08-07T12:58:00.781Z,20.88
2022-08-07T13:01:12.695Z,21.14
2022-08-07T13:04:31.718Z,20.07
2022-08-07T13:08:14.336Z,19.72
2022-08-07T13:10:39.497Z,19.82
2022-08-07T13:13:48.409Z,20.26
2022-08-07T13:16:53.735Z,20.37
2022-08-07T13:19:51.074Z,20.64
2022-08-07T13:22:52.394Z,21.14
2022-08-07T13:25:34.955Z,21.43
2022-08-07T13:28:14.213Z,21.88
2022-08-07T13:31:01.924Z,21.82
2022-08-07T13:34:31.725Z,21.83
2022-08-07T13:36:45.463Z,21.80
2022-08-07T13:40:35.033Z,22.09
2022-08-07T13:42:40.898Z,22.21
2022-08-07T13:46:07.094Z,22.39
2022-08-07T13:48:08.262Z,22.57
2022-08-07T13:50:45.096Z,22.69
2022-08-07T13:53:59.718Z,23.00
2022-08-07T13:56:35.734Z,23.42
2022-08-07T13:59:21.684Z,23.54
2022-08-07T14:02:12.885Z,23.44
2022-08-07T14:04:49.422Z,23.47
2022-08-07T14:07:23.054Z,23.61
2022-08-07T14:10:02.858Z,23.76
2022-08-07T14:12:49.490Z,24.39
2022-08-07T14:15:25.750Z,25.01
2022-08-07T14:18:23.917Z,25.07
2022-08-07T14:20:54.537Z,26.41
2022-08-07T14:23:59.018Z,27.70
2022-08-07T14:26:28.335Z,28.56
2022-08-07T14:29:10.584Z,29.05
2022-08-07T14:31:53.325Z,29.45
2022-08-07T14:37:19.254Z,30.10
2022-08-07T14:40:17.436Z,30.28
2022-08-07T14:43:01.497Z,30.55
2022-08-07T14:45:49.637Z,30.80
2022-08-07T14:48:22.391Z,30.97
2022-08-07T14:51:00.128Z,30.66
2022-08-07T14:56:30.613Z,30.03
2022-08-07T14:59:13.668Z,29.99
2022-08-07T15:05:01.693Z,29.61
2022-08-07T15:07:51.020Z,29.57
2022-08-07T15:10:29.566Z,29.70
2022-08-07T15:13:12.276Z,29.75
2022-08-07T15:18:45.514Z,30.10
2022-08-07T15:21:44.053Z,30.53
2022-08-07T15:25:13.162Z,30.94
2022-08-07T15:27:10.410Z,31.49
2022-08-07T15:30:08.843Z,32.16
2022-08-07T15:32:39.622Z,32.54
2022-08-07T15:35:19.687Z,32.80
2022-08-07T15:41:23.502Z,33.12
2022-08-07T15:44:01.041Z,33.35
2022-08-07T15:46:39.329Z,33.42
2022-08-07T15:50:04.929Z,33.09
2022-08-07T15:52:29.638Z,32.88
2022-08-07T15:55:08.666Z,32.84
2022-08-07T15:57:48.682Z,32.83
2022-08-07T16:00:31.079Z,32.73
2022-08-07T16:03:21.533Z,32.81
2022-08-07T16:06:25.496Z,32.83
2022-08-07T16:09:22.439Z,33.01
2022-08-07T16:12:13.286Z,33.19
2022-08-07T16:15:54.521Z,33.48
2022-08-07T16:18:59.720Z,33.70
2022-08-07T16:22:31.549Z,34.05
2022-08-07T16:25:23.395Z,34.53
2022-08-07T16:30:06.346Z,34.85
2022-08-07T16:32:03.898Z,35.18
2022-08-07T16:34:41.714Z,35.30
2022-08-07T16:38:04.607Z,36.08
2022-08-07T16:40:28.215Z,37.03
2022-08-07T16:43:07.742Z,37.48
2022-08-07T16:46:47.136Z,38.07
2022-08-07T16:50:20.100Z,38.55
2022-08-07T16:52:51.834Z,39.58
2022-08-07T16:55:47.228Z,40.18
2022-08-07T16:58:16.144Z,40.92
2022-08-07T17:01:19.867Z,41.28
2022-08-07T17:04:00.035Z,42.10
2022-08-07T17:07:03.305Z,42.51
2022-08-07T17:10:06.560Z,42.81
2022-08-07T17:12:53.059Z,43.07
2022-08-07T17:15:44.684Z,43.50
2022-08-07T17:18:41.497Z,43.33
2022-08-07T17:21:24.588Z,43.64
2022-08-07T17:24:25.092Z,43.72
2022-08-07T17:27:29.696Z,43.92
2022-08-07T17:30:16.122Z,44.20
2022-08-07T17:34:08.846Z,44.59
2022-08-07T17:36:27.416Z,44.78
2022-08-07T17:39:19.940Z,44.72
2022-08-07T17:42:29.916Z,45.10
2022-08-07T17:44:59.658Z,45.07
2022-08-07T17:47:44.665Z,45.34
2022-08-07T17:50:50.333Z,45.55
2022-08-07T17:54:01.493Z,45.63
2022-08-07T17:56:49.366Z,45.89
2022-08-07T17:59:24.446Z,45.93
2022-08-07T18:01:56.821Z,45.98
2022-08-07T18:04:51.997Z,46.37
2022-08-07T18:07:37.846Z,46.26
2022-08-07T18:12:07.562Z,46.09
2022-08-07T18:13:41.773Z,46.22
2022-08-07T18:16:33.066Z,46.39
2022-08-07T18:21:10.626Z,46.51
2022-08-07T18:22:26.914Z,46.55
2022-08-07T18:25:23.986Z,46.80
2022-08-07T18:28:35.434Z,46.89
2022-08-07T18:31:18.422Z,47.07
2022-08-07T18:34:35.741Z,46.95
2022-08-07T18:37:12.593Z,46.96
2022-08-07T18:40:08.055Z,47.21
2022-08-07T18:42:44.276Z,47.19
2022-08-07T18:45:40.274Z,47.24
2022-08-07T18:49:23.729Z,47.39
2022-08-07T18:52:34.631Z,47.63
2022-08-07T18:54:49.818Z,47.73
2022-08-07T18:57:38.056Z,47.58
2022-08-07T19:00:32.564Z,47.39
2022-08-07T19:03:15.917Z,47.88
2022-08-07T19:06:03.825Z,47.91
2022-08-07T19:08:35.381Z,47.95
2022-08-07T19:11:34.865Z,47.90
2022-08-07T19:14:11.476Z,48.14
2022-08-07T19:17:07.921Z,49.00
2022-08-07T19:19:41.948Z,54.16
2022-08-07T19:22:30.889Z,57.53
2022-08-07T19:25:06.461Z,59.73
2022-08-07T19:30:54.164Z,61.46
2022-08-07T19:31:02.236Z,64.18
2022-08-07T19:37:22.255Z,64.59
2022-08-07T20:08:07.690Z,71.80
2022-08-07T20:11:01.923Z,71.39
2022-08-07T20:14:13.538Z,71.44
2022-08-07T20:18:04.360Z,71.72
2022-08-07T20:22:04.105Z,71.55
2022-08-07T20:25:01.867Z,70.29
2022-08-07T20:27:47.826Z,70.89
2022-08-07T20:30:22.448Z,71.03
2022-08-07T20:32:56.182Z,70.90
2022-08-07T20:35:34.714Z,70.64
2022-08-07T20:38:11.381Z,70.76
2022-08-07T20:40:51.591Z,70.98
2022-08-07T20:43:27.103Z,71.03
2022-08-07T20:46:26.517Z,70.75
2022-08-07T20:49:54.247Z,71.43
2022-08-07T20:51:49.000Z,71.24
2022-08-07T20:54:30.272Z,71.42
2022-08-07T20:57:05.536Z,70.66
2022-08-07T21:00:07.974Z,70.22
2022-08-07T21:02:54.508Z,70.19
2022-08-07T21:05:51.233Z,69.93
2022-08-07T21:08:39.211Z,70.75
2022-08-07T21:11:21.944Z,71.10
2022-08-07T21:14:32.091Z,71.14
2022-08-07T21:16:56.907Z,70.82
2022-08-07T21:19:51.453Z,70.72
2022-08-07T21:22:33.253Z,71.13
2022-08-07T21:25:12.101Z,71.05
2022-08-07T21:28:07.836Z,71.02
2022-08-07T21:30:50.365Z,70.16
2022-08-07T21:33:38.503Z,69.52
2022-08-07T21:36:42.743Z,69.55
2022-08-07T21:39:51.742Z,69.43
2022-08-07T21:42:48.859Z,69.25
2022-08-07T21:46:05.186Z,69.42
2022-08-07T21:48:27.692Z,69.35
2022-08-07T21:51:25.442Z,69.72
2022-08-07T21:54:22.386Z,70.70
2022-08-07T21:57:31.214Z,70.27
2022-08-07T22:00:22.732Z,70.11
2022-08-07T22:03:05.581Z,69.75
2022-08-07T22:05:48.314Z,69.43
2022-08-07T22:08:19.832Z,69.31
2022-08-07T22:10:51.002Z,69.71
2022-08-07T22:13:24.189Z,69.75
2022-08-07T22:16:38.624Z,69.82
2022-08-07T22:19:08.576Z,70.76
2022-08-07T22:22:01.729Z,71.17
2022-08-07T22:25:03.248Z,71.25
2022-08-07T22:28:07.560Z,72.05
2022-08-07T22:30:26.490Z,72.12
2022-08-07T22:33:09.661Z,71.64
2022-08-07T22:36:06.712Z,72.29
2022-08-07T22:38:50.632Z,72.98
2022-08-07T22:42:03.616Z,71.14
2022-08-07T22:44:26.606Z,70.01
2022-08-07T22:47:32.781Z,70.07
2022-08-07T22:50:38.006Z,70.06
2022-08-07T22:53:19.315Z,70.10
2022-08-07T22:56:13.182Z,70.37
2022-08-07T22:59:17.600Z,70.41
2022-08-07T23:02:06.958Z,70.45
2022-08-07T23:04:58.548Z,70.69
2022-08-07T23:08:24.419Z,70.55
2022-08-07T23:11:20.900Z,70.37
2022-08-07T23:14:16.613Z,70.20
2022-08-07T23:16:55.272Z,70.17
2022-08-07T23:19:51.328Z,70.00
2022-08-07T23:22:39.793Z,70.41
2022-08-07T23:25:29.316Z,70.90
2022-08-07T23:28:35.789Z,71.36
2022-08-07T23:32:49.621Z,71.55
2022-08-07T23:35:01.060Z,71.60
2022-08-07T23:38:01.230Z,72.12
2022-08-07T23:40:51.841Z,72.16
2022-08-07T23:43:37.884Z,72.35
2022-08-07T23:46:23.882Z,72.12
2022-08-07T23:49:50.186Z,72.11
2022-08-07T23:53:06.315Z,72.06
2022-08-07T23:55:52.547Z,72.23
2022-08-07T23:58:37.857Z,72.06
